sensor_id;sensor_type;location;lat;lon;timestamp;P1;durP1;ratioP1;P2;durP2;ratioP2
64826;SDS011;51265;53.972;12.286;2023-02-28T00:00:37;6.05;;;2.90;;
64826;SDS011;51265;53.972;12.286;2023-02-28T00:03:04;5.25;;;2.75;;
64826;SDS011;51265;53.972;12.286;2023-02-28T00:05:31;5.65;;;3.47;;
64826;SDS011;51265;53.972;12.286;2023-02-28T00:07:57;6.85;;;3.22;;
64826;SDS011;51265;53.972;12.286;2023-02-28T00:10:25;5.35;;;3.15;;
64826;SDS011;51265;53.972;12.286;2023-02-28T00:12:53;9.85;;;3.53;;
64826;SDS011;51265;53.972;12.286;2023-02-28T00:15:23;7.22;;;3.20;;
64826;SDS011;51265;53.972;12.286;2023-02-28T00:17:50;5.07;;;3.17;;
64826;SDS011;51265;53.972;12.286;2023-02-28T00:20:16;8.70;;;3.58;;
64826;SDS011;51265;53.972;12.286;2023-02-28T00:22:44;7.72;;;3.33;;
64826;SDS011;51265;53.972;12.286;2023-02-28T00:25:13;7.72;;;3.60;;
64826;SDS011;51265;53.972;12.286;2023-02-28T00:27:41;6.60;;;3.28;;
64826;SDS011;51265;53.972;12.286;2023-02-28T00:30:09;9.82;;;3.90;;
64826;SDS011;51265;53.972;12.286;2023-02-28T00:32:38;7.10;;;3.53;;
64826;SDS011;51265;53.972;12.286;2023-02-28T00:35:05;7.35;;;3.97;;
64826;SDS011;51265;53.972;12.286;2023-02-28T00:37:32;9.32;;;3.88;;
64826;SDS011;51265;53.972;12.286;2023-02-28T00:39:58;9.20;;;3.80;;
64826;SDS011;51265;53.972;12.286;2023-02-28T00:42:24;6.50;;;3.45;;
64826;SDS011;51265;53.972;12.286;2023-02-28T00:44:50;10.45;;;4.20;;
64826;SDS011;51265;53.972;12.286;2023-02-28T00:47:16;12.20;;;4.25;;
64826;SDS011;51265;53.972;12.286;2023-02-28T00:49:43;10.00;;;4.80;;
64826;SDS011;51265;53.972;12.286;2023-02-28T00:52:09;8.88;;;3.58;;
64826;SDS011;51265;53.972;12.286;2023-02-28T00:54:35;8.35;;;3.70;;
64826;SDS011;51265;53.972;12.286;2023-02-28T00:57:01;8.27;;;3.75;;
64826;SDS011;51265;53.972;12.286;2023-02-28T00:59:28;8.80;;;4.00;;
64826;SDS011;51265;53.972;12.286;2023-02-28T01:01:54;10.07;;;4.15;;
64826;SDS011;51265;53.972;12.286;2023-02-28T01:04:21;8.07;;;4.45;;
64826;SDS011;51265;53.972;12.286;2023-02-28T01:06:48;11.45;;;4.07;;
64826;SDS011;51265;53.972;12.286;2023-02-28T01:09:14;6.15;;;3.55;;
64826;SDS011;51265;53.972;12.286;2023-02-28T01:11:42;7.20;;;4.45;;
64826;SDS011;51265;53.972;12.286;2023-02-28T01:14:14;10.05;;;4.25;;
64826;SDS011;51265;53.972;12.286;2023-02-28T01:16:42;7.63;;;3.83;;
64826;SDS011;51265;53.972;12.286;2023-02-28T01:19:08;9.63;;;4.15;;
64826;SDS011;51265;53.972;12.286;2023-02-28T01:21:35;7.00;;;3.88;;
64826;SDS011;51265;53.972;12.286;2023-02-28T01:24:02;7.88;;;3.60;;
64826;SDS011;51265;53.972;12.286;2023-02-28T01:26:29;6.93;;;4.10;;
64826;SDS011;51265;53.972;12.286;2023-02-28T01:28:55;8.38;;;3.60;;
64826;SDS011;51265;53.972;12.286;2023-02-28T01:31:22;9.85;;;3.53;;
64826;SDS011;51265;53.972;12.286;2023-02-28T01:33:48;6.95;;;3.33;;
64826;SDS011;51265;53.972;12.286;2023-02-28T01:36:16;7.28;;;3.30;;
64826;SDS011;51265;53.972;12.286;2023-02-28T01:38:45;11.60;;;3.60;;
64826;SDS011;51265;53.972;12.286;2023-02-28T01:41:17;7.25;;;3.92;;
64826;SDS011;51265;53.972;12.286;2023-02-28T01:46:13;7.82;;;3.35;;
64826;SDS011;51265;53.972;12.286;2023-02-28T01:51:41;9.52;;;3.33;;
64826;SDS011;51265;53.972;12.286;2023-02-28T01:54:18;7.57;;;4.28;;
64826;SDS011;51265;53.972;12.286;2023-02-28T01:56:53;7.57;;;3.85;;
64826;SDS011;51265;53.972;12.286;2023-02-28T01:59:24;11.98;;;3.85;;
64826;SDS011;51265;53.972;12.286;2023-02-28T02:01:55;12.50;;;3.58;;
64826;SDS011;51265;53.972;12.286;2023-02-28T02:04:23;6.82;;;3.97;;
64826;SDS011;51265;53.972;12.286;2023-02-28T02:06:51;10.18;;;3.95;;
64826;SDS011;51265;53.972;12.286;2023-02-28T02:09:18;8.88;;;3.75;;
64826;SDS011;51265;53.972;12.286;2023-02-28T02:11:44;8.35;;;3.67;;
64826;SDS011;51265;53.972;12.286;2023-02-28T02:16:44;7.05;;;3.78;;
64826;SDS011;51265;53.972;12.286;2023-02-28T02:24:49;9.55;;;4.13;;
64826;SDS011;51265;53.972;12.286;2023-02-28T02:30:44;10.10;;;4.60;;
64826;SDS011;51265;53.972;12.286;2023-02-28T02:33:47;10.48;;;4.35;;
64826;SDS011;51265;53.972;12.286;2023-02-28T02:36:25;8.43;;;4.78;;
64826;SDS011;51265;53.972;12.286;2023-02-28T02:39:04;7.95;;;4.88;;
64826;SDS011;51265;53.972;12.286;2023-02-28T02:41:47;11.48;;;5.38;;
64826;SDS011;51265;53.972;12.286;2023-02-28T02:47:11;8.93;;;4.68;;
64826;SDS011;51265;53.972;12.286;2023-02-28T02:49:42;10.90;;;5.60;;
64826;SDS011;51265;53.972;12.286;2023-02-28T02:52:14;9.63;;;4.27;;
64826;SDS011;51265;53.972;12.286;2023-02-28T02:54:45;11.07;;;5.13;;
64826;SDS011;51265;53.972;12.286;2023-02-28T02:57:17;10.13;;;4.88;;
64826;SDS011;51265;53.972;12.286;2023-02-28T02:59:48;13.68;;;4.85;;
64826;SDS011;51265;53.972;12.286;2023-02-28T03:02:19;8.38;;;4.25;;
64826;SDS011;51265;53.972;12.286;2023-02-28T03:04:56;11.70;;;4.95;;
64826;SDS011;51265;53.972;12.286;2023-02-28T03:07:27;9.98;;;4.72;;
64826;SDS011;51265;53.972;12.286;2023-02-28T03:09:55;7.95;;;4.70;;
64826;SDS011;51265;53.972;12.286;2023-02-28T03:12:23;9.98;;;4.80;;
64826;SDS011;51265;53.972;12.286;2023-02-28T03:17:47;9.52;;;4.82;;
64826;SDS011;51265;53.972;12.286;2023-02-28T03:20:34;11.15;;;5.63;;
64826;SDS011;51265;53.972;12.286;2023-02-28T03:23:11;14.32;;;6.40;;
64826;SDS011;51265;53.972;12.286;2023-02-28T03:25:45;14.10;;;6.13;;
64826;SDS011;51265;53.972;12.286;2023-02-28T03:28:41;10.93;;;7.10;;
64826;SDS011;51265;53.972;12.286;2023-02-28T03:31:16;18.45;;;6.70;;
64826;SDS011;51265;53.972;12.286;2023-02-28T03:33:48;14.40;;;6.00;;
64826;SDS011;51265;53.972;12.286;2023-02-28T03:36:39;11.23;;;6.20;;
64826;SDS011;51265;53.972;12.286;2023-02-28T03:39:16;16.02;;;6.28;;
64826;SDS011;51265;53.972;12.286;2023-02-28T03:41:47;12.88;;;6.22;;
64826;SDS011;51265;53.972;12.286;2023-02-28T03:44:45;12.95;;;5.55;;
64826;SDS011;51265;53.972;12.286;2023-02-28T03:47:21;12.15;;;6.28;;
64826;SDS011;51265;53.972;12.286;2023-02-28T03:50:16;11.85;;;6.10;;
64826;SDS011;51265;53.972;12.286;2023-02-28T03:52:49;9.07;;;5.07;;
64826;SDS011;51265;53.972;12.286;2023-02-28T03:55:19;9.38;;;5.25;;
64826;SDS011;51265;53.972;12.286;2023-02-28T04:00:54;12.82;;;6.05;;
64826;SDS011;51265;53.972;12.286;2023-02-28T04:03:36;10.77;;;6.63;;
64826;SDS011;51265;53.972;12.286;2023-02-28T04:06:03;15.48;;;7.18;;
64826;SDS011;51265;53.972;12.286;2023-02-28T04:08:31;16.27;;;6.93;;
64826;SDS011;51265;53.972;12.286;2023-02-28T04:11:00;12.63;;;7.07;;
64826;SDS011;51265;53.972;12.286;2023-02-28T04:13:31;15.75;;;6.88;;
64826;SDS011;51265;53.972;12.286;2023-02-28T04:15:58;15.18;;;6.38;;
64826;SDS011;51265;53.972;12.286;2023-02-28T04:18:24;18.67;;;8.10;;
64826;SDS011;51265;53.972;12.286;2023-02-28T04:20:50;13.75;;;6.88;;
64826;SDS011;51265;53.972;12.286;2023-02-28T04:23:16;13.65;;;7.35;;
64826;SDS011;51265;53.972;12.286;2023-02-28T04:25:43;13.90;;;7.05;;
64826;SDS011;51265;53.972;12.286;2023-02-28T04:28:09;12.48;;;7.82;;
64826;SDS011;51265;53.972;12.286;2023-02-28T04:30:35;16.08;;;7.05;;
64826;SDS011;51265;53.972;12.286;2023-02-28T04:33:03;11.20;;;7.15;;
64826;SDS011;51265;53.972;12.286;2023-02-28T04:35:29;14.40;;;7.97;;
64826;SDS011;51265;53.972;12.286;2023-02-28T04:37:56;14.73;;;7.18;;
64826;SDS011;51265;53.972;12.286;2023-02-28T04:40:22;11.93;;;7.38;;
64826;SDS011;51265;53.972;12.286;2023-02-28T04:42:48;14.10;;;7.60;;
64826;SDS011;51265;53.972;12.286;2023-02-28T04:45:14;17.75;;;7.88;;
64826;SDS011;51265;53.972;12.286;2023-02-28T04:47:40;17.45;;;7.85;;
64826;SDS011;51265;53.972;12.286;2023-02-28T04:50:07;17.85;;;7.88;;
64826;SDS011;51265;53.972;12.286;2023-02-28T04:52:34;12.10;;;7.15;;
64826;SDS011;51265;53.972;12.286;2023-02-28T04:55:00;11.65;;;7.30;;
64826;SDS011;51265;53.972;12.286;2023-02-28T04:57:26;13.35;;;7.50;;
64826;SDS011;51265;53.972;12.286;2023-02-28T04:59:52;15.73;;;7.68;;
64826;SDS011;51265;53.972;12.286;2023-02-28T05:02:18;12.85;;;7.90;;
64826;SDS011;51265;53.972;12.286;2023-02-28T05:04:46;15.43;;;7.85;;
64826;SDS011;51265;53.972;12.286;2023-02-28T05:07:13;16.02;;;8.63;;
64826;SDS011;51265;53.972;12.286;2023-02-28T05:09:39;14.73;;;8.45;;
64826;SDS011;51265;53.972;12.286;2023-02-28T05:12:06;14.65;;;8.80;;
64826;SDS011;51265;53.972;12.286;2023-02-28T05:14:32;15.18;;;9.48;;
64826;SDS011;51265;53.972;12.286;2023-02-28T05:16:59;15.50;;;9.25;;
64826;SDS011;51265;53.972;12.286;2023-02-28T05:19:25;15.05;;;9.02;;
64826;SDS011;51265;53.972;12.286;2023-02-28T05:21:52;16.67;;;8.30;;
64826;SDS011;51265;53.972;12.286;2023-02-28T05:24:20;19.75;;;8.65;;
64826;SDS011;51265;53.972;12.286;2023-02-28T05:26:50;13.57;;;7.90;;
64826;SDS011;51265;53.972;12.286;2023-02-28T05:29:18;13.52;;;7.18;;
64826;SDS011;51265;53.972;12.286;2023-02-28T05:31:45;19.35;;;6.78;;
64826;SDS011;51265;53.972;12.286;2023-02-28T05:34:11;13.02;;;7.28;;
64826;SDS011;51265;53.972;12.286;2023-02-28T05:36:38;16.02;;;8.07;;
64826;SDS011;51265;53.972;12.286;2023-02-28T05:39:05;16.80;;;8.25;;
64826;SDS011;51265;53.972;12.286;2023-02-28T05:41:33;13.98;;;7.75;;
64826;SDS011;51265;53.972;12.286;2023-02-28T05:43:59;17.95;;;8.60;;
64826;SDS011;51265;53.972;12.286;2023-02-28T05:46:26;32.65;;;16.63;;
64826;SDS011;51265;53.972;12.286;2023-02-28T05:48:52;54.33;;;27.20;;
64826;SDS011;51265;53.972;12.286;2023-02-28T05:51:18;50.97;;;27.08;;
64826;SDS011;51265;53.972;12.286;2023-02-28T05:53:45;28.80;;;15.15;;
64826;SDS011;51265;53.972;12.286;2023-02-28T05:56:11;15.25;;;8.32;;
64826;SDS011;51265;53.972;12.286;2023-02-28T05:58:37;12.40;;;7.22;;
64826;SDS011;51265;53.972;12.286;2023-02-28T06:04:00;16.63;;;8.93;;
64826;SDS011;51265;53.972;12.286;2023-02-28T06:06:28;15.57;;;8.70;;
64826;SDS011;51265;53.972;12.286;2023-02-28T06:08:55;14.60;;;7.63;;
64826;SDS011;51265;53.972;12.286;2023-02-28T06:11:22;14.13;;;7.57;;
64826;SDS011;51265;53.972;12.286;2023-02-28T06:13:53;14.75;;;8.00;;
64826;SDS011;51265;53.972;12.286;2023-02-28T06:16:23;15.30;;;8.20;;
64826;SDS011;51265;53.972;12.286;2023-02-28T06:18:50;15.30;;;7.50;;
64826;SDS011;51265;53.972;12.286;2023-02-28T06:21:18;13.02;;;7.55;;
64826;SDS011;51265;53.972;12.286;2023-02-28T06:23:44;13.05;;;7.30;;
64826;SDS011;51265;53.972;12.286;2023-02-28T06:26:11;18.98;;;7.63;;
64826;SDS011;51265;53.972;12.286;2023-02-28T06:28:37;12.70;;;6.53;;
64826;SDS011;51265;53.972;12.286;2023-02-28T06:31:07;13.13;;;6.90;;
64826;SDS011;51265;53.972;12.286;2023-02-28T06:33:38;11.18;;;6.50;;
64826;SDS011;51265;53.972;12.286;2023-02-28T06:36:05;44.50;;;21.95;;
64826;SDS011;51265;53.972;12.286;2023-02-28T06:38:33;101.63;;;45.50;;
64826;SDS011;51265;53.972;12.286;2023-02-28T06:41:00;114.93;;;53.65;;
64826;SDS011;51265;53.972;12.286;2023-02-28T06:43:28;71.70;;;33.47;;
64826;SDS011;51265;53.972;12.286;2023-02-28T06:45:57;25.83;;;12.10;;
64826;SDS011;51265;53.972;12.286;2023-02-28T06:48:24;17.58;;;6.78;;
64826;SDS011;51265;53.972;12.286;2023-02-28T06:50:51;21.17;;;11.00;;
64826;SDS011;51265;53.972;12.286;2023-02-28T06:53:17;18.40;;;9.27;;
64826;SDS011;51265;53.972;12.286;2023-02-28T06:55:44;14.82;;;7.32;;
64826;SDS011;51265;53.972;12.286;2023-02-28T06:58:10;18.83;;;8.45;;
64826;SDS011;51265;53.972;12.286;2023-02-28T07:00:45;15.55;;;7.68;;
64826;SDS011;51265;53.972;12.286;2023-02-28T07:03:12;15.88;;;6.80;;
64826;SDS011;51265;53.972;12.286;2023-02-28T07:05:41;11.95;;;6.80;;
64826;SDS011;51265;53.972;12.286;2023-02-28T07:08:07;16.10;;;6.97;;
64826;SDS011;51265;53.972;12.286;2023-02-28T07:10:34;16.75;;;7.13;;
64826;SDS011;51265;53.972;12.286;2023-02-28T07:13:03;11.95;;;6.82;;
64826;SDS011;51265;53.972;12.286;2023-02-28T07:15:30;14.18;;;7.35;;
64826;SDS011;51265;53.972;12.286;2023-02-28T07:17:56;12.98;;;6.47;;
64826;SDS011;51265;53.972;12.286;2023-02-28T07:20:23;11.77;;;6.20;;
64826;SDS011;51265;53.972;12.286;2023-02-28T07:22:50;15.07;;;7.07;;
64826;SDS011;51265;53.972;12.286;2023-02-28T07:25:25;13.80;;;7.40;;
64826;SDS011;51265;53.972;12.286;2023-02-28T07:27:53;14.35;;;6.57;;
64826;SDS011;51265;53.972;12.286;2023-02-28T07:30:20;15.45;;;7.65;;
64826;SDS011;51265;53.972;12.286;2023-02-28T07:32:46;18.27;;;9.25;;
64826;SDS011;51265;53.972;12.286;2023-02-28T07:35:12;16.83;;;7.85;;
64826;SDS011;51265;53.972;12.286;2023-02-28T07:37:41;17.63;;;7.68;;
64826;SDS011;51265;53.972;12.286;2023-02-28T07:40:09;18.40;;;8.73;;
64826;SDS011;51265;53.972;12.286;2023-02-28T07:42:40;17.67;;;8.75;;
64826;SDS011;51265;53.972;12.286;2023-02-28T07:45:08;14.80;;;8.93;;
64826;SDS011;51265;53.972;12.286;2023-02-28T07:47:38;20.80;;;8.35;;
64826;SDS011;51265;53.972;12.286;2023-02-28T07:50:05;12.50;;;7.32;;
64826;SDS011;51265;53.972;12.286;2023-02-28T07:52:32;13.95;;;7.63;;
64826;SDS011;51265;53.972;12.286;2023-02-28T07:54:58;16.77;;;7.85;;
64826;SDS011;51265;53.972;12.286;2023-02-28T07:57:24;15.10;;;8.00;;
64826;SDS011;51265;53.972;12.286;2023-02-28T07:59:51;17.55;;;8.05;;
64826;SDS011;51265;53.972;12.286;2023-02-28T08:02:17;12.77;;;7.72;;
64826;SDS011;51265;53.972;12.286;2023-02-28T08:04:44;17.60;;;8.45;;
64826;SDS011;51265;53.972;12.286;2023-02-28T08:07:13;20.20;;;9.13;;
64826;SDS011;51265;53.972;12.286;2023-02-28T08:09:40;19.52;;;9.57;;
64826;SDS011;51265;53.972;12.286;2023-02-28T08:12:07;16.20;;;8.38;;
64826;SDS011;51265;53.972;12.286;2023-02-28T08:14:33;19.63;;;9.45;;
64826;SDS011;51265;53.972;12.286;2023-02-28T08:17:00;13.23;;;8.07;;
64826;SDS011;51265;53.972;12.286;2023-02-28T08:19:26;13.10;;;8.80;;
64826;SDS011;51265;53.972;12.286;2023-02-28T08:21:53;19.33;;;8.75;;
64826;SDS011;51265;53.972;12.286;2023-02-28T08:24:20;14.30;;;8.15;;
64826;SDS011;51265;53.972;12.286;2023-02-28T08:26:46;15.43;;;8.00;;
64826;SDS011;51265;53.972;12.286;2023-02-28T08:29:12;18.73;;;7.95;;
64826;SDS011;51265;53.972;12.286;2023-02-28T08:31:38;17.27;;;8.77;;
64826;SDS011;51265;53.972;12.286;2023-02-28T08:34:08;18.05;;;8.13;;
64826;SDS011;51265;53.972;12.286;2023-02-28T08:36:35;13.02;;;7.95;;
64826;SDS011;51265;53.972;12.286;2023-02-28T08:39:01;19.40;;;8.60;;
64826;SDS011;51265;53.972;12.286;2023-02-28T08:41:27;15.00;;;8.10;;
64826;SDS011;51265;53.972;12.286;2023-02-28T08:43:53;11.13;;;7.53;;
64826;SDS011;51265;53.972;12.286;2023-02-28T08:46:20;11.15;;;6.18;;
64826;SDS011;51265;53.972;12.286;2023-02-28T08:48:46;10.80;;;6.38;;
64826;SDS011;51265;53.972;12.286;2023-02-28T08:51:14;11.50;;;5.80;;
64826;SDS011;51265;53.972;12.286;2023-02-28T08:53:47;17.90;;;5.50;;
64826;SDS011;51265;53.972;12.286;2023-02-28T08:56:15;9.95;;;5.18;;
64826;SDS011;51265;53.972;12.286;2023-02-28T08:58:53;17.15;;;6.30;;
64826;SDS011;51265;53.972;12.286;2023-02-28T09:01:22;13.43;;;6.50;;
64826;SDS011;51265;53.972;12.286;2023-02-28T09:03:50;11.02;;;5.18;;
64826;SDS011;51265;53.972;12.286;2023-02-28T09:06:18;11.35;;;6.20;;
64826;SDS011;51265;53.972;12.286;2023-02-28T09:08:45;10.35;;;5.65;;
64826;SDS011;51265;53.972;12.286;2023-02-28T09:11:12;19.52;;;9.48;;
64826;SDS011;51265;53.972;12.286;2023-02-28T09:13:38;8.50;;;4.90;;
64826;SDS011;51265;53.972;12.286;2023-02-28T09:16:06;6.90;;;4.10;;
64826;SDS011;51265;53.972;12.286;2023-02-28T09:18:34;9.18;;;3.42;;
64826;SDS011;51265;53.972;12.286;2023-02-28T09:21:03;6.97;;;3.08;;
64826;SDS011;51265;53.972;12.286;2023-02-28T09:23:31;7.13;;;3.50;;
64826;SDS011;51265;53.972;12.286;2023-02-28T09:25:57;7.57;;;3.40;;
64826;SDS011;51265;53.972;12.286;2023-02-28T09:28:23;6.93;;;3.00;;
64826;SDS011;51265;53.972;12.286;2023-02-28T09:30:51;5.75;;;2.40;;
64826;SDS011;51265;53.972;12.286;2023-02-28T09:33:19;5.32;;;2.60;;
64826;SDS011;51265;53.972;12.286;2023-02-28T09:35:49;6.13;;;2.83;;
64826;SDS011;51265;53.972;12.286;2023-02-28T09:38:17;7.68;;;2.72;;
64826;SDS011;51265;53.972;12.286;2023-02-28T09:40:50;5.45;;;2.83;;
64826;SDS011;51265;53.972;12.286;2023-02-28T09:43:20;6.55;;;2.63;;
64826;SDS011;51265;53.972;12.286;2023-02-28T09:45:50;5.95;;;2.45;;
64826;SDS011;51265;53.972;12.286;2023-02-28T09:48:25;9.35;;;2.80;;
64826;SDS011;51265;53.972;12.286;2023-02-28T09:53:36;6.65;;;2.65;;
64826;SDS011;51265;53.972;12.286;2023-02-28T09:56:09;5.22;;;1.70;;
64826;SDS011;51265;53.972;12.286;2023-02-28T10:01:42;5.85;;;2.13;;
64826;SDS011;51265;53.972;12.286;2023-02-28T10:06:51;7.80;;;2.28;;
64826;SDS011;51265;53.972;12.286;2023-02-28T10:09:19;4.70;;;1.85;;
64826;SDS011;51265;53.972;12.286;2023-02-28T10:11:53;5.60;;;2.10;;
64826;SDS011;51265;53.972;12.286;2023-02-28T10:14:23;5.05;;;1.95;;
64826;SDS011;51265;53.972;12.286;2023-02-28T10:16:55;9.65;;;2.30;;
64826;SDS011;51265;53.972;12.286;2023-02-28T10:19:26;4.55;;;2.63;;
64826;SDS011;51265;53.972;12.286;2023-02-28T10:22:00;5.82;;;1.90;;
64826;SDS011;51265;53.972;12.286;2023-02-28T10:24:35;7.78;;;2.65;;
64826;SDS011;51265;53.972;12.286;2023-02-28T10:27:15;5.50;;;2.20;;
64826;SDS011;51265;53.972;12.286;2023-02-28T10:29:45;4.28;;;1.90;;
64826;SDS011;51265;53.972;12.286;2023-02-28T10:32:17;4.72;;;1.77;;
64826;SDS011;51265;53.972;12.286;2023-02-28T10:35:28;5.78;;;2.78;;
64826;SDS011;51265;53.972;12.286;2023-02-28T10:37:37;6.13;;;2.80;;
64826;SDS011;51265;53.972;12.286;2023-02-28T10:40:05;7.18;;;3.15;;
64826;SDS011;51265;53.972;12.286;2023-02-28T10:42:32;8.20;;;3.72;;
64826;SDS011;51265;53.972;12.286;2023-02-28T10:45:06;9.18;;;4.28;;
64826;SDS011;51265;53.972;12.286;2023-02-28T10:48:26;6.93;;;3.95;;
64826;SDS011;51265;53.972;12.286;2023-02-28T10:50:55;8.25;;;4.30;;
64826;SDS011;51265;53.972;12.286;2023-02-28T10:56:01;8.52;;;3.90;;
64826;SDS011;51265;53.972;12.286;2023-02-28T11:01:20;6.45;;;3.03;;
64826;SDS011;51265;53.972;12.286;2023-02-28T11:03:49;6.10;;;2.60;;
64826;SDS011;51265;53.972;12.286;2023-02-28T11:06:18;8.23;;;2.90;;
64826;SDS011;51265;53.972;12.286;2023-02-28T11:08:54;6.95;;;3.25;;
64826;SDS011;51265;53.972;12.286;2023-02-28T11:11:22;6.53;;;2.70;;
64826;SDS011;51265;53.972;12.286;2023-02-28T11:13:52;9.10;;;3.25;;
64826;SDS011;51265;53.972;12.286;2023-02-28T11:16:20;6.93;;;2.72;;
64826;SDS011;51265;53.972;12.286;2023-02-28T11:18:48;10.32;;;3.50;;
64826;SDS011;51265;53.972;12.286;2023-02-28T11:21:18;8.70;;;3.20;;
64826;SDS011;51265;53.972;12.286;2023-02-28T11:23:48;8.80;;;3.50;;
64826;SDS011;51265;53.972;12.286;2023-02-28T11:26:35;7.25;;;2.95;;
64826;SDS011;51265;53.972;12.286;2023-02-28T11:29:08;5.22;;;2.28;;
64826;SDS011;51265;53.972;12.286;2023-02-28T11:31:43;5.72;;;2.83;;
64826;SDS011;51265;53.972;12.286;2023-02-28T11:34:25;7.03;;;2.72;;
64826;SDS011;51265;53.972;12.286;2023-02-28T11:36:57;4.43;;;2.28;;
64826;SDS011;51265;53.972;12.286;2023-02-28T11:39:25;6.85;;;1.98;;
64826;SDS011;51265;53.972;12.286;2023-02-28T11:44:53;6.53;;;2.10;;
64826;SDS011;51265;53.972;12.286;2023-02-28T11:55:49;3.92;;;1.98;;
64826;SDS011;51265;53.972;12.286;2023-02-28T11:58:41;9.10;;;3.00;;
64826;SDS011;51265;53.972;12.286;2023-02-28T12:01:24;9.35;;;3.10;;
64826;SDS011;51265;53.972;12.286;2023-02-28T12:04:14;6.28;;;2.78;;
64826;SDS011;51265;53.972;12.286;2023-02-28T12:06:51;6.38;;;3.08;;
64826;SDS011;51265;53.972;12.286;2023-02-28T12:09:35;5.85;;;3.30;;
64826;SDS011;51265;53.972;12.286;2023-02-28T12:12:21;7.70;;;2.85;;
64826;SDS011;51265;53.972;12.286;2023-02-28T12:21:10;5.72;;;2.67;;
64826;SDS011;51265;53.972;12.286;2023-02-28T12:29:14;10.43;;;2.42;;
64826;SDS011;51265;53.972;12.286;2023-02-28T12:34:37;6.32;;;2.42;;
64826;SDS011;51265;53.972;12.286;2023-02-28T12:37:07;5.90;;;1.75;;
64826;SDS011;51265;53.972;12.286;2023-02-28T12:39:41;6.72;;;2.55;;
64826;SDS011;51265;53.972;12.286;2023-02-28T12:42:10;6.65;;;2.30;;
64826;SDS011;51265;53.972;12.286;2023-02-28T12:44:48;5.38;;;1.75;;
64826;SDS011;51265;53.972;12.286;2023-02-28T12:47:19;3.72;;;1.90;;
64826;SDS011;51265;53.972;12.286;2023-02-28T12:49:46;2.75;;;1.40;;
64826;SDS011;51265;53.972;12.286;2023-02-28T12:52:49;4.60;;;1.60;;
64826;SDS011;51265;53.972;12.286;2023-02-28T12:55:23;19.92;;;2.20;;
64826;SDS011;51265;53.972;12.286;2023-02-28T13:00:29;3.08;;;1.40;;
64826;SDS011;51265;53.972;12.286;2023-02-28T13:14:19;2.20;;;1.20;;
64826;SDS011;51265;53.972;12.286;2023-02-28T13:24:55;3.38;;;2.10;;
64826;SDS011;51265;53.972;12.286;2023-02-28T13:27:25;5.80;;;1.65;;
64826;SDS011;51265;53.972;12.286;2023-02-28T13:29:59;5.20;;;1.98;;
64826;SDS011;51265;53.972;12.286;2023-02-28T13:37:32;5.45;;;2.08;;
64826;SDS011;51265;53.972;12.286;2023-02-28T13:40:26;4.47;;;2.05;;
64826;SDS011;51265;53.972;12.286;2023-02-28T13:42:54;4.20;;;1.55;;
64826;SDS011;51265;53.972;12.286;2023-02-28T13:48:00;7.63;;;1.83;;
64826;SDS011;51265;53.972;12.286;2023-02-28T13:58:46;4.00;;;1.63;;
64826;SDS011;51265;53.972;12.286;2023-02-28T14:06:38;4.63;;;1.70;;
64826;SDS011;51265;53.972;12.286;2023-02-28T14:11:41;4.03;;;1.67;;
64826;SDS011;51265;53.972;12.286;2023-02-28T14:17:03;7.63;;;3.22;;
64826;SDS011;51265;53.972;12.286;2023-02-28T14:19:31;7.68;;;3.05;;
64826;SDS011;51265;53.972;12.286;2023-02-28T14:22:10;3.53;;;1.50;;
64826;SDS011;51265;53.972;12.286;2023-02-28T14:30:24;5.57;;;1.63;;
64826;SDS011;51265;53.972;12.286;2023-02-28T14:33:05;4.32;;;1.63;;
64826;SDS011;51265;53.972;12.286;2023-02-28T14:38:21;3.22;;;1.63;;
64826;SDS011;51265;53.972;12.286;2023-02-28T14:40:51;4.97;;;2.00;;
64826;SDS011;51265;53.972;12.286;2023-02-28T14:43:22;3.10;;;1.42;;
64826;SDS011;51265;53.972;12.286;2023-02-28T14:45:59;2.35;;;1.52;;
64826;SDS011;51265;53.972;12.286;2023-02-28T14:48:31;6.57;;;1.90;;
64826;SDS011;51265;53.972;12.286;2023-02-28T14:50:58;4.65;;;1.67;;
64826;SDS011;51265;53.972;12.286;2023-02-28T14:53:29;5.95;;;1.95;;
64826;SDS011;51265;53.972;12.286;2023-02-28T14:56:01;3.90;;;1.60;;
64826;SDS011;51265;53.972;12.286;2023-02-28T14:58:28;6.30;;;1.70;;
64826;SDS011;51265;53.972;12.286;2023-02-28T15:00:57;5.00;;;2.65;;
64826;SDS011;51265;53.972;12.286;2023-02-28T15:03:32;9.27;;;2.08;;
64826;SDS011;51265;53.972;12.286;2023-02-28T15:06:05;7.68;;;2.20;;
64826;SDS011;51265;53.972;12.286;2023-02-28T15:08:38;4.85;;;2.13;;
64826;SDS011;51265;53.972;12.286;2023-02-28T15:11:05;4.97;;;1.83;;
64826;SDS011;51265;53.972;12.286;2023-02-28T15:13:48;4.57;;;1.67;;
64826;SDS011;51265;53.972;12.286;2023-02-28T15:16:22;4.80;;;2.17;;
64826;SDS011;51265;53.972;12.286;2023-02-28T15:18:52;3.70;;;1.70;;
64826;SDS011;51265;53.972;12.286;2023-02-28T15:23:51;4.38;;;2.13;;
64826;SDS011;51265;53.972;12.286;2023-02-28T15:26:22;7.30;;;2.33;;
64826;SDS011;51265;53.972;12.286;2023-02-28T15:28:54;4.82;;;1.90;;
64826;SDS011;51265;53.972;12.286;2023-02-28T15:31:26;3.50;;;2.27;;
64826;SDS011;51265;53.972;12.286;2023-02-28T15:34:02;6.33;;;2.40;;
64826;SDS011;51265;53.972;12.286;2023-02-28T15:36:32;5.17;;;2.17;;
64826;SDS011;51265;53.972;12.286;2023-02-28T15:39:16;7.07;;;2.40;;
64826;SDS011;51265;53.972;12.286;2023-02-28T15:41:45;5.90;;;2.25;;
64826;SDS011;51265;53.972;12.286;2023-02-28T15:46:57;4.93;;;1.98;;
64826;SDS011;51265;53.972;12.286;2023-02-28T15:49:31;3.50;;;2.25;;
64826;SDS011;51265;53.972;12.286;2023-02-28T15:52:05;3.53;;;1.80;;
64826;SDS011;51265;53.972;12.286;2023-02-28T15:54:34;3.20;;;2.05;;
64826;SDS011;51265;53.972;12.286;2023-02-28T15:57:03;5.03;;;1.90;;
64826;SDS011;51265;53.972;12.286;2023-02-28T15:59:34;3.78;;;1.85;;
64826;SDS011;51265;53.972;12.286;2023-02-28T16:07:39;6.40;;;2.10;;
64826;SDS011;51265;53.972;12.286;2023-02-28T16:10:07;4.45;;;1.90;;
64826;SDS011;51265;53.972;12.286;2023-02-28T16:12:37;4.18;;;1.60;;
64826;SDS011;51265;53.972;12.286;2023-02-28T16:15:38;3.65;;;1.88;;
64826;SDS011;51265;53.972;12.286;2023-02-28T16:18:00;2.55;;;1.70;;
64826;SDS011;51265;53.972;12.286;2023-02-28T16:20:28;2.90;;;1.33;;
64826;SDS011;51265;53.972;12.286;2023-02-28T16:22:56;5.13;;;2.17;;
64826;SDS011;51265;53.972;12.286;2023-02-28T16:25:29;5.07;;;1.52;;
64826;SDS011;51265;53.972;12.286;2023-02-28T16:28:00;2.65;;;1.38;;
64826;SDS011;51265;53.972;12.286;2023-02-28T16:30:27;3.60;;;1.70;;
64826;SDS011;51265;53.972;12.286;2023-02-28T16:32:58;10.13;;;4.80;;
64826;SDS011;51265;53.972;12.286;2023-02-28T16:35:25;9.98;;;5.63;;
64826;SDS011;51265;53.972;12.286;2023-02-28T16:37:51;3.72;;;1.63;;
64826;SDS011;51265;53.972;12.286;2023-02-28T16:40:18;4.45;;;1.45;;
64826;SDS011;51265;53.972;12.286;2023-02-28T16:42:48;3.42;;;1.50;;
64826;SDS011;51265;53.972;12.286;2023-02-28T16:45:17;4.75;;;1.92;;
64826;SDS011;51265;53.972;12.286;2023-02-28T16:47:47;8.52;;;2.42;;
64826;SDS011;51265;53.972;12.286;2023-02-28T16:50:17;2.72;;;1.42;;
64826;SDS011;51265;53.972;12.286;2023-02-28T16:52:46;3.97;;;1.75;;
64826;SDS011;51265;53.972;12.286;2023-02-28T16:55:15;4.95;;;1.65;;
64826;SDS011;51265;53.972;12.286;2023-02-28T16:57:41;2.85;;;1.42;;
64826;SDS011;51265;53.972;12.286;2023-02-28T17:00:11;2.92;;;1.23;;
64826;SDS011;51265;53.972;12.286;2023-02-28T17:02:39;4.43;;;1.52;;